YSC weather

Sherbrooke Airport
Sherbrooke, Quebec, Canada

Public forecast

Using degrees Celsius for public forecast. Weather courtesy of forecast.io.

Current aviation weather report (METAR) for Sherbrooke Airport

Retrieved 2020/05/31 23:00 UTC (56 minutes ago):

CYSC 312300Z AUTO 31006KT 9SM BKN065 BKN085 BKN250 08/M02 A3009 RMK SLP199

Aviation forecast (TAF) for Sherbrooke Airport

Retrieved 2020/05/31 18:00 UTC (6 hours ago):

TAF CYSC 311730Z 3118/0103 29015G25KT P6SM BKN050 TEMPO 3118/3124 P6SM -SHRA FM010000 32008KT P6SM SCT050 TEMPO 0100/0103 BKN050 BECMG 0100/0102 VRB03KT RMK FCST BASED ON AUTO OBS NXT FCST BY 010000Z